Time;durP1;ratioP1;P1;durP2;ratioP2;P2;SDS_P1;SDS_P2;PMS_P1;PMS_P2;Temp;Humidity;BMP_temperature;BMP_pressure;BME280_temperature;BME280_humidity;BME280_pressure;Samples;Min_cycle;Max_cycle;Signal;HPM_P1;HPM_P2
2022/03/20 00:00:38;;;;;;;1.17;0.63;;;6.60;59.70;;;;;;5133437;28;20153;-68
2022/03/20 00:03:07;;;;;;;1.77;0.70;;;6.60;59.80;;;;;;5132926;28;20160;-68
2022/03/20 00:05:35;;;;;;;1.17;0.80;;;6.60;59.90;;;;;;5114641;28;20398;-68
2022/03/20 00:08:01;;;;;;;0.93;0.60;;;6.50;59.90;;;;;;5133157;28;20031;-68
2022/03/20 00:10:27;;;;;;;0.95;0.63;;;6.60;60.00;;;;;;5114711;28;20039;-68
2022/03/20 00:12:53;;;;;;;2.00;0.82;;;6.50;60.00;;;;;;5133302;28;20039;-68
2022/03/20 00:15:18;;;;;;;1.17;0.60;;;6.50;60.10;;;;;;5133305;28;20039;-68
2022/03/20 00:17:44;;;;;;;1.23;0.82;;;6.40;60.10;;;;;;5133228;28;20046;-68
2022/03/20 00:20:11;;;;;;;1.33;0.73;;;6.40;60.20;;;;;;5132628;28;20035;-68
2022/03/20 00:22:37;;;;;;;2.00;0.80;;;6.40;60.30;;;;;;5132730;28;20105;-68
2022/03/20 00:25:04;;;;;;;1.60;0.80;;;6.40;60.30;;;;;;5133414;28;20043;-68
2022/03/20 00:27:31;;;;;;;1.25;0.95;;;6.40;60.40;;;;;;5132794;28;20043;-68
2022/03/20 00:29:57;;;;;;;2.55;0.90;;;6.30;60.40;;;;;;5132623;28;20046;-68
2022/03/20 00:32:23;;;;;;;1.65;0.77;;;6.30;60.50;;;;;;5095120;28;20425;-68
2022/03/20 00:34:48;;;;;;;1.52;0.85;;;6.30;60.50;;;;;;5133035;28;20036;-69
2022/03/20 00:37:14;;;;;;;1.77;0.93;;;6.30;60.50;;;;;;5132840;28;20490;-68
2022/03/20 00:39:42;;;;;;;3.05;0.77;;;6.30;60.60;;;;;;5132672;28;20114;-68
2022/03/20 00:42:07;;;;;;;1.65;0.90;;;6.30;60.60;;;;;;5114361;28;20043;-69
2022/03/20 00:44:33;;;;;;;1.75;1.17;;;6.30;60.70;;;;;;5117303;28;20421;-68
2022/03/20 00:46:59;;;;;;;2.88;1.30;;;6.20;60.70;;;;;;5135958;28;20042;-68
2022/03/20 00:49:24;;;;;;;2.03;1.10;;;6.20;60.80;;;;;;5136421;28;20486;-68
2022/03/20 00:51:50;;;;;;;2.00;1.05;;;6.20;60.80;;;;;;5136552;28;20543;-69
2022/03/20 00:54:16;;;;;;;2.85;1.50;;;6.20;60.80;;;;;;5118085;28;20039;-68
2022/03/20 00:56:41;;;;;;;1.95;1.00;;;6.20;60.90;;;;;;5136616;28;20039;-68
2022/03/20 00:59:07;;;;;;;2.15;1.20;;;6.10;60.90;;;;;;5136092;28;20047;-68
2022/03/20 01:01:33;;;;;;;2.03;1.00;;;6.10;61.00;;;;;;5117570;28;20039;-68
2022/03/20 01:03:59;;;;;;;3.53;1.25;;;6.10;61.00;;;;;;5117809;28;20068;-68
2022/03/20 01:06:25;;;;;;;1.83;1.15;;;6.10;61.10;;;;;;5098828;28;20036;-68
2022/03/20 01:08:52;;;;;;;2.65;1.42;;;6.00;61.10;;;;;;5136443;28;20469;-68
2022/03/20 01:11:18;;;;;;;1.75;1.35;;;6.00;61.20;;;;;;5117717;28;20460;-68
2022/03/20 01:13:43;;;;;;;2.40;1.50;;;6.00;61.30;;;;;;5116022;28;20092;-68
2022/03/20 01:16:09;;;;;;;2.83;1.45;;;6.00;61.30;;;;;;5117563;28;20043;-68
2022/03/20 01:18:35;;;;;;;2.35;1.40;;;6.00;61.30;;;;;;5117220;28;20039;-68
2022/03/20 01:21:03;;;;;;;3.67;1.92;;;6.00;61.30;;;;;;5135650;28;20125;-68
2022/03/20 01:23:29;;;;;;;3.28;1.67;;;5.90;61.30;;;;;;5115830;28;20039;-68
2022/03/20 01:25:55;;;;;;;3.83;1.90;;;5.90;61.40;;;;;;5117002;28;20591;-68
2022/03/20 01:28:23;;;;;;;3.30;1.80;;;5.90;61.40;;;;;;5135717;28;20054;-68
2022/03/20 01:30:49;;;;;;;2.60;1.38;;;5.90;61.50;;;;;;5135464;28;20375;-68
2022/03/20 01:33:17;;;;;;;2.97;1.65;;;5.80;61.50;;;;;;5135664;28;20054;-68
2022/03/20 01:35:43;;;;;;;3.42;1.45;;;5.70;61.60;;;;;;5135764;28;20045;-68
2022/03/20 01:38:10;;;;;;;3.88;1.75;;;5.70;61.70;;;;;;5116762;28;20481;-68
2022/03/20 01:40:36;;;;;;;3.38;1.77;;;5.70;61.80;;;;;;5135131;28;20508;-68
2022/03/20 01:43:02;;;;;;;2.55;1.40;;;5.60;61.80;;;;;;5135451;28;20035;-69
2022/03/20 01:45:28;;;;;;;3.33;1.58;;;5.60;61.90;;;;;;5135312;28;20096;-68
2022/03/20 01:47:54;;;;;;;2.15;1.50;;;5.50;62.10;;;;;;5135465;28;20042;-68
2022/03/20 01:50:23;;;;;;;2.08;1.23;;;5.50;62.20;;;;;;5135112;28;20043;-68
2022/03/20 01:52:50;;;;;;;2.42;1.33;;;5.50;62.30;;;;;;5135061;28;20077;-69
2022/03/20 01:55:18;;;;;;;2.70;1.35;;;5.40;62.30;;;;;;5134086;27;20039;-69
2022/03/20 01:57:44;;;;;;;1.85;1.23;;;5.40;62.50;;;;;;5135131;28;20080;-68
2022/03/20 02:00:13;;;;;;;2.83;1.40;;;5.40;62.50;;;;;;5135013;28;20043;-68
2022/03/20 02:02:40;;;;;;;2.03;1.13;;;5.30;62.70;;;;;;5116491;28;20047;-68
2022/03/20 02:05:09;;;;;;;2.97;1.63;;;5.20;62.70;;;;;;5135089;28;20050;-68
2022/03/20 02:07:36;;;;;;;2.33;1.40;;;5.30;62.80;;;;;;5135438;28;20039;-68
2022/03/20 02:10:03;;;;;;;1.95;1.08;;;5.20;62.90;;;;;;5134868;28;20039;-68
2022/03/20 02:12:30;;;;;;;2.28;1.27;;;5.20;63.00;;;;;;5116247;28;20050;-68
2022/03/20 02:15:01;;;;;;;2.22;1.10;;;5.10;63.00;;;;;;5134642;28;20051;-68
2022/03/20 02:17:29;;;;;;;2.45;1.08;;;5.20;63.10;;;;;;5134949;28;20039;-68
2022/03/20 02:19:57;;;;;;;2.50;1.35;;;5.10;63.10;;;;;;5134619;28;20397;-68
2022/03/20 02:22:24;;;;;;;2.95;1.38;;;5.10;63.20;;;;;;5134417;28;20038;-68
2022/03/20 02:24:51;;;;;;;2.30;1.20;;;5.10;63.30;;;;;;5098090;28;20039;-68
2022/03/20 02:27:22;;;;;;;2.10;1.08;;;5.00;63.40;;;;;;5135209;28;20049;-68
2022/03/20 02:29:52;;;;;;;1.75;0.90;;;5.00;63.50;;;;;;5134886;28;20119;-68
2022/03/20 02:32:20;;;;;;;2.72;1.10;;;5.00;63.60;;;;;;5134924;28;20043;-68
2022/03/20 02:34:48;;;;;;;2.63;1.02;;;5.00;63.70;;;;;;5134238;28;20096;-68
2022/03/20 02:37:19;;;;;;;1.67;1.00;;;5.00;63.80;;;;;;5134599;28;20039;-68
2022/03/20 02:39:46;;;;;;;1.50;0.93;;;5.00;64.00;;;;;;5134199;28;20113;-68
2022/03/20 02:42:13;;;;;;;2.78;1.30;;;4.90;63.90;;;;;;5134837;28;20067;-68
2022/03/20 02:44:56;;;;;;;2.58;1.00;;;4.90;64.00;;;;;;5116324;28;20043;-68
2022/03/20 02:47:23;;;;;;;2.13;1.00;;;4.90;64.20;;;;;;5134316;28;20035;-68
2022/03/20 02:49:53;;;;;;;1.95;1.10;;;4.90;64.20;;;;;;5115784;28;20402;-68
2022/03/20 02:52:22;;;;;;;2.72;1.20;;;4.90;64.30;;;;;;5129968;28;20126;-68
2022/03/20 02:54:47;;;;;;;1.75;1.10;;;4.80;64.30;;;;;;5134517;28;20043;-67
2022/03/20 02:57:13;;;;;;;1.90;1.23;;;4.90;64.50;;;;;;5134225;28;20039;-70
2022/03/20 02:59:39;;;;;;;2.72;1.33;;;4.80;64.50;;;;;;5115768;28;20035;-68
2022/03/20 03:02:05;;;;;;;1.85;1.00;;;4.80;64.60;;;;;;5134443;28;20042;-67
2022/03/20 03:04:31;;;;;;;1.70;1.00;;;4.80;64.60;;;;;;5134237;28;20039;-70
2022/03/20 03:07:02;;;;;;;2.17;1.17;;;4.70;64.70;;;;;;5133819;27;20031;-69
2022/03/20 03:12:08;;;;;;;1.92;1.17;;;4.70;64.90;;;;;;5133829;28;20130;-70
2022/03/20 03:17:27;;;;;;;1.70;0.98;;;4.70;65.00;;;;;;5118342;28;20051;-68
2022/03/20 03:19:54;;;;;;;1.63;1.17;;;4.70;65.00;;;;;;5133639;28;20071;-67
2022/03/20 03:22:20;;;;;;;3.15;1.60;;;4.70;65.00;;;;;;5115431;28;20035;-67
2022/03/20 03:24:46;;;;;;;1.92;1.15;;;4.70;65.10;;;;;;5115542;28;20137;-68
2022/03/20 03:27:12;;;;;;;3.08;1.17;;;4.70;65.20;;;;;;5115256;28;20492;-68
2022/03/20 03:29:37;;;;;;;1.77;1.30;;;4.60;65.20;;;;;;5133426;28;20046;-68
2022/03/20 03:32:05;;;;;;;3.33;1.80;;;4.60;65.30;;;;;;5133334;28;20061;-67
2022/03/20 03:37:09;;;;;;;4.05;1.60;;;4.60;65.40;;;;;;5101211;28;20122;-68
2022/03/20 03:39:35;;;;;;;2.00;1.17;;;4.70;65.40;;;;;;5133269;28;20070;-67
2022/03/20 03:42:01;;;;;;;2.70;1.50;;;4.60;65.50;;;;;;5115216;28;20035;-68
2022/03/20 03:44:26;;;;;;;2.15;1.27;;;4.60;65.50;;;;;;5133413;28;20377;-68
2022/03/20 03:46:57;;;;;;;2.42;1.40;;;4.60;65.60;;;;;;5133939;28;20046;-68
2022/03/20 03:49:23;;;;;;;2.92;1.50;;;4.60;65.60;;;;;;5133228;28;20047;-68
2022/03/20 03:51:49;;;;;;;3.13;1.70;;;4.60;65.60;;;;;;5114816;28;20050;-68
2022/03/20 03:54:15;;;;;;;2.22;1.50;;;4.60;65.60;;;;;;5114758;28;20064;-67
2022/03/20 03:56:41;;;;;;;4.57;1.83;;;4.60;65.60;;;;;;5133262;28;20047;-67
2022/03/20 03:59:07;;;;;;;2.97;1.60;;;4.60;65.70;;;;;;5133723;28;20431;-68
2022/03/20 04:01:32;;;;;;;2.97;1.48;;;4.60;65.70;;;;;;5113643;28;20126;-68
2022/03/20 04:03:58;;;;;;;3.03;1.70;;;4.60;65.70;;;;;;5133165;28;20043;-68
2022/03/20 04:06:24;;;;;;;3.03;1.60;;;4.60;65.70;;;;;;5114377;28;20069;-68
2022/03/20 04:08:49;;;;;;;3.25;1.60;;;4.60;65.60;;;;;;5133525;28;20035;-68
2022/03/20 04:11:15;;;;;;;3.38;1.50;;;4.60;65.60;;;;;;5133211;28;20116;-68
2022/03/20 04:13:41;;;;;;;2.63;1.50;;;4.70;65.60;;;;;;5114762;28;20070;-67
2022/03/20 04:16:07;;;;;;;2.92;1.75;;;4.70;65.60;;;;;;5114781;28;20502;-67
2022/03/20 04:18:32;;;;;;;2.63;1.48;;;4.70;65.50;;;;;;5113922;28;20039;-68
2022/03/20 04:20:58;;;;;;;2.58;1.48;;;4.70;65.60;;;;;;5132971;28;20069;-68
2022/03/20 04:26:05;;;;;;;1.83;1.30;;;4.70;65.50;;;;;;5132540;28;20067;-67
2022/03/20 04:28:31;;;;;;;3.15;1.70;;;4.80;65.60;;;;;;5132988;28;20140;-68
2022/03/20 04:30:56;;;;;;;3.30;1.60;;;4.70;65.50;;;;;;5132669;28;20039;-68
2022/03/20 04:33:27;;;;;;;6.18;2.17;;;4.80;66.20;;;;;;5132666;28;20039;-68
2022/03/20 04:35:53;;;;;;;3.33;1.73;;;4.70;65.60;;;;;;5132402;28;20126;-68
2022/03/20 04:38:21;;;;;;;2.92;1.63;;;4.70;65.60;;;;;;5132702;28;20114;-68
2022/03/20 04:40:48;;;;;;;3.17;1.80;;;4.80;65.60;;;;;;5132521;28;20047;-68
2022/03/20 04:43:15;;;;;;;3.85;1.85;;;4.70;65.60;;;;;;5132407;28;20046;-68
2022/03/20 04:45:40;;;;;;;2.67;1.45;;;4.70;65.60;;;;;;5096676;28;20482;-69
2022/03/20 04:58:47;;;;;;;4.18;2.05;;;4.80;65.40;;;;;;5132459;28;20043;-68
2022/03/20 05:01:13;;;;;;;4.30;2.10;;;4.80;65.40;;;;;;5132261;28;20443;-68
2022/03/20 05:03:38;;;;;;;4.60;2.10;;;4.80;65.40;;;;;;5132483;28;20044;-68
2022/03/20 05:06:05;;;;;;;4.13;1.90;;;4.90;65.40;;;;;;5132615;28;20065;-68
2022/03/20 05:08:32;;;;;;;4.15;2.15;;;4.90;65.40;;;;;;5132466;28;20050;-68
2022/03/20 05:13:38;;;;;;;3.67;2.08;;;4.90;65.40;;;;;;5132397;28;20104;-68
2022/03/20 05:16:04;;;;;;;3.92;2.08;;;4.90;65.40;;;;;;5132941;28;20474;-68
2022/03/20 05:18:32;;;;;;;4.10;2.00;;;4.90;65.30;;;;;;5114427;28;20046;-69
2022/03/20 05:20:58;;;;;;;4.35;2.20;;;4.90;65.40;;;;;;5132955;28;20050;-69
2022/03/20 05:23:23;;;;;;;4.30;2.20;;;4.90;65.30;;;;;;5132241;28;20392;-68
2022/03/20 05:25:49;;;;;;;3.63;1.95;;;4.90;66.00;;;;;;5132371;28;20508;-68
2022/03/20 05:28:17;;;;;;;4.00;2.15;;;5.00;65.40;;;;;;5132579;28;20458;-68
2022/03/20 05:30:43;;;;;;;4.70;2.22;;;4.90;65.30;;;;;;5134328;27;20499;-68
2022/03/20 05:33:10;;;;;;;3.85;2.05;;;5.00;65.40;;;;;;5117198;28;20435;-68
2022/03/20 05:35:38;;;;;;;3.45;1.75;;;4.90;65.30;;;;;;5135682;28;20042;-68
2022/03/20 05:38:03;;;;;;;4.30;2.13;;;5.00;65.40;;;;;;5117318;28;20043;-68
2022/03/20 05:40:29;;;;;;;3.65;1.98;;;4.90;65.30;;;;;;5116247;28;20039;-69
2022/03/20 05:42:55;;;;;;;3.63;1.85;;;4.90;65.30;;;;;;5135549;28;20035;-68
2022/03/20 05:45:21;;;;;;;5.07;1.90;;;4.90;65.30;;;;;;5135381;28;20039;-68
2022/03/20 05:47:46;;;;;;;4.13;2.17;;;4.90;65.30;;;;;;5135738;28;20054;-68
2022/03/20 05:50:12;;;;;;;4.47;2.17;;;4.90;65.30;;;;;;5135415;28;20547;-68
2022/03/20 05:52:38;;;;;;;4.65;2.22;;;4.90;65.30;;;;;;5135388;28;20071;-69
2022/03/20 05:55:06;;;;;;;3.50;1.90;;;4.90;65.30;;;;;;5116932;28;20426;-68
2022/03/20 06:00:23;;;;;;;3.45;2.05;;;4.90;65.30;;;;;;5135415;28;20122;-69
2022/03/20 06:02:49;;;;;;;3.15;1.92;;;4.90;65.30;;;;;;5135364;28;20038;-69
2022/03/20 06:05:15;;;;;;;4.35;1.88;;;4.90;65.30;;;;;;5135274;28;20476;-70
2022/03/20 06:07:43;;;;;;;3.45;1.80;;;4.90;65.40;;;;;;5117351;28;20051;-69
2022/03/20 06:10:11;;;;;;;3.78;1.85;;;4.90;65.30;;;;;;5135789;28;20039;-69
2022/03/20 06:12:37;;;;;;;3.13;1.80;;;4.90;65.30;;;;;;5135175;28;20066;-69
2022/03/20 06:15:03;;;;;;;3.38;1.73;;;4.90;65.30;;;;;;5135696;28;20073;-69
2022/03/20 06:17:29;;;;;;;4.82;1.77;;;4.90;65.30;;;;;;5135226;28;20043;-69
2022/03/20 06:19:55;;;;;;;2.92;1.65;;;4.90;65.30;;;;;;5135139;28;20035;-69
2022/03/20 06:22:21;;;;;;;3.03;1.73;;;4.90;65.30;;;;;;5134828;28;20039;-69
2022/03/20 06:24:47;;;;;;;2.85;1.60;;;5.00;65.30;;;;;;5115732;28;20046;-68
2022/03/20 06:27:13;;;;;;;3.03;1.60;;;5.00;65.30;;;;;;5135105;28;20045;-68
2022/03/20 06:29:38;;;;;;;3.35;1.67;;;5.00;65.20;;;;;;5116329;28;20043;-69
2022/03/20 06:32:05;;;;;;;3.85;1.70;;;5.00;65.10;;;;;;5116353;28;20069;-69
2022/03/20 06:34:30;;;;;;;3.75;1.95;;;5.00;65.10;;;;;;5135050;28;20035;-69
2022/03/20 06:36:59;;;;;;;3.30;2.00;;;5.00;65.00;;;;;;5134929;28;20088;-69
2022/03/20 06:39:25;;;;;;;4.45;2.28;;;5.00;64.90;;;;;;5134621;28;20047;-69
2022/03/20 06:41:50;;;;;;;5.63;2.22;;;5.10;64.90;;;;;;5134161;27;20037;-69
2022/03/20 06:44:16;;;;;;;4.22;2.25;;;5.10;64.80;;;;;;5134712;28;20066;-69
2022/03/20 06:46:43;;;;;;;5.45;2.20;;;5.10;64.80;;;;;;5116363;28;20092;-69
2022/03/20 06:49:10;;;;;;;4.03;1.90;;;5.10;64.80;;;;;;5116488;28;20039;-70
2022/03/20 06:51:36;;;;;;;4.43;1.83;;;5.10;64.80;;;;;;5116515;28;20071;-69
2022/03/20 06:54:02;;;;;;;4.18;2.00;;;5.00;64.70;;;;;;5134262;28;20482;-70
2022/03/20 06:56:28;;;;;;;2.85;1.60;;;5.10;64.70;;;;;;5134314;28;20046;-70
2022/03/20 06:58:56;;;;;;;3.63;1.90;;;5.10;64.70;;;;;;5134130;28;20046;-69
2022/03/20 07:01:22;;;;;;;3.55;1.77;;;5.10;64.60;;;;;;5134549;28;20031;-70
2022/03/20 07:03:47;;;;;;;3.05;1.50;;;5.10;64.50;;;;;;5134880;28;20477;-70
2022/03/20 07:06:13;;;;;;;3.38;1.60;;;5.10;64.60;;;;;;5134329;28;20047;-70
2022/03/20 07:08:39;;;;;;;3.65;1.90;;;5.10;64.50;;;;;;5115251;28;20072;-70
2022/03/20 07:11:05;;;;;;;3.78;1.77;;;5.20;64.50;;;;;;5115820;28;20393;-70
2022/03/20 07:16:14;;;;;;;3.72;2.10;;;5.20;64.40;;;;;;5133802;28;20493;-70
2022/03/20 07:18:40;;;;;;;3.80;2.00;;;5.20;64.30;;;;;;5134094;28;20043;-70
2022/03/20 07:21:06;;;;;;;4.18;2.05;;;5.20;64.20;;;;;;5134198;28;20039;-70
2022/03/20 07:23:32;;;;;;;3.72;1.98;;;5.30;64.20;;;;;;5133759;28;20493;-70
2022/03/20 07:31:21;;;;;;;3.72;1.98;;;5.30;63.90;;;;;;5116388;28;20084;-70
2022/03/20 07:33:48;;;;;;;5.20;2.20;;;5.40;63.90;;;;;;5133907;28;20134;-70
2022/03/20 07:36:14;;;;;;;4.43;2.20;;;5.40;63.80;;;;;;5134069;28;20127;-70
2022/03/20 07:38:40;;;;;;;4.18;2.15;;;5.50;63.70;;;;;;5115278;28;20077;-70
2022/03/20 07:41:06;;;;;;;3.30;1.80;;;5.50;63.60;;;;;;5115307;28;20470;-70
2022/03/20 07:43:32;;;;;;;4.97;2.22;;;5.60;63.50;;;;;;5134224;28;20041;-70
2022/03/20 07:45:58;;;;;;;4.75;2.22;;;5.70;63.30;;;;;;5133440;28;20035;-70
2022/03/20 07:48:24;;;;;;;3.55;2.30;;;5.70;63.20;;;;;;5133643;28;20043;-70
2022/03/20 07:50:50;;;;;;;4.40;2.30;;;5.70;63.00;;;;;;5133477;28;20088;-70
2022/03/20 07:53:17;;;;;;;3.83;2.35;;;5.70;62.90;;;;;;5132548;27;20082;-70
2022/03/20 07:55:44;;;;;;;4.85;2.35;;;5.70;62.90;;;;;;5133670;28;20039;-70
2022/03/20 07:58:10;;;;;;;4.97;2.60;;;5.70;62.90;;;;;;5115391;28;20035;-70
2022/03/20 08:00:39;;;;;;;4.65;2.20;;;5.70;63.00;;;;;;5114969;28;20069;-70
2022/03/20 08:03:05;;;;;;;4.80;2.45;;;5.60;63.00;;;;;;5133828;28;20547;-70
2022/03/20 08:05:31;;;;;;;4.57;2.10;;;5.60;62.90;;;;;;5133200;28;20039;-70
2022/03/20 08:07:57;;;;;;;5.78;2.20;;;5.70;63.00;;;;;;5133397;28;20401;-70
2022/03/20 08:10:22;;;;;;;4.25;2.10;;;5.70;62.90;;;;;;5133040;28;20047;-70
2022/03/20 08:12:48;;;;;;;4.22;2.25;;;5.70;62.80;;;;;;5133461;28;20078;-68
2022/03/20 08:15:16;;;;;;;5.57;2.88;;;5.80;62.70;;;;;;5133108;28;20453;-69
2022/03/20 08:17:43;;;;;;;4.97;2.63;;;5.80;62.60;;;;;;5133734;28;20433;-70
2022/03/20 08:20:10;;;;;;;5.68;2.85;;;5.90;62.50;;;;;;5133662;28;20083;-70
2022/03/20 08:22:37;;;;;;;5.18;2.60;;;5.90;62.40;;;;;;5114967;28;20043;-70
2022/03/20 08:25:04;;;;;;;4.68;2.60;;;5.90;62.30;;;;;;5132994;28;20367;-70
2022/03/20 08:27:30;;;;;;;5.65;2.60;;;5.90;62.10;;;;;;5133725;28;20043;-70
2022/03/20 08:29:57;;;;;;;4.30;2.22;;;6.00;62.00;;;;;;5133550;28;20050;-70
2022/03/20 08:32:24;;;;;;;3.80;2.05;;;6.10;61.90;;;;;;5133326;28;20039;-70
2022/03/20 08:34:50;;;;;;;4.38;2.40;;;6.30;61.80;;;;;;5133059;28;20432;-68
2022/03/20 08:37:16;;;;;;;5.88;3.00;;;6.30;61.60;;;;;;5133026;28;20031;-68
2022/03/20 08:39:42;;;;;;;5.65;3.05;;;6.30;61.30;;;;;;5132934;28;20486;-69
2022/03/20 08:42:08;;;;;;;5.57;2.92;;;6.50;61.10;;;;;;5115095;28;20031;-69
2022/03/20 08:44:33;;;;;;;4.95;2.85;;;6.50;60.80;;;;;;5132956;28;20264;-69
2022/03/20 08:47:00;;;;;;;5.07;2.70;;;6.60;60.60;;;;;;5132529;28;20035;-70
2022/03/20 08:49:25;;;;;;;4.82;2.90;;;6.60;60.50;;;;;;5133061;28;20050;-70
2022/03/20 08:51:51;;;;;;;5.60;2.75;;;6.60;60.40;;;;;;5132598;28;20397;-70
2022/03/20 08:54:17;;;;;;;5.55;3.30;;;6.70;60.40;;;;;;5132727;28;20379;-68
2022/03/20 08:56:43;;;;;;;5.15;2.60;;;6.80;60.30;;;;;;5132873;28;20486;-68
2022/03/20 08:59:08;;;;;;;4.60;2.60;;;6.80;60.20;;;;;;5132916;28;20544;-70
2022/03/20 09:01:34;;;;;;;5.45;2.47;;;6.90;60.10;;;;;;5133076;28;20035;-69
2022/03/20 09:04:00;;;;;;;5.07;2.80;;;6.90;60.00;;;;;;5115083;28;20059;-69
2022/03/20 09:06:26;;;;;;;5.18;2.92;;;7.00;60.00;;;;;;5075879;28;20055;-69
2022/03/20 09:08:53;;;;;;;5.28;2.70;;;7.00;59.90;;;;;;5092769;28;20039;-70
2022/03/20 09:11:21;;;;;;;4.55;2.65;;;7.10;59.90;;;;;;5060229;28;20048;-70
2022/03/20 09:13:47;;;;;;;4.78;2.50;;;7.00;59.80;;;;;;5073885;28;20130;-70
2022/03/20 09:21:34;;;;;;;5.50;2.80;;;7.10;59.80;;;;;;5077810;28;20119;-68
2022/03/20 09:24:00;;;;;;;5.50;2.85;;;7.30;59.70;;;;;;5092772;28;20048;-68
2022/03/20 09:26:27;;;;;;;4.43;2.50;;;7.40;59.50;;;;;;5093099;28;20028;-68
2022/03/20 09:28:54;;;;;;;5.78;2.70;;;7.50;59.30;;;;;;5092830;28;20468;-69
2022/03/20 09:31:20;;;;;;;4.93;2.67;;;7.50;59.10;;;;;;5073609;28;20522;-69
2022/03/20 09:33:47;;;;;;;3.97;2.35;;;7.60;59.10;;;;;;5075184;28;20048;-69
2022/03/20 09:36:12;;;;;;;4.45;2.47;;;7.70;59.00;;;;;;5092626;28;20040;-70
2022/03/20 09:38:38;;;;;;;5.68;2.80;;;7.80;58.90;;;;;;5133681;28;20043;-69
2022/03/20 09:41:07;;;;;;;4.95;2.80;;;7.90;58.80;;;;;;5135511;28;20481;-69
2022/03/20 09:43:36;;;;;;;4.63;2.50;;;7.90;58.80;;;;;;5135596;28;20043;-69
2022/03/20 09:46:04;;;;;;;4.55;2.45;;;8.00;58.80;;;;;;5117383;28;20517;-69
2022/03/20 09:48:30;;;;;;;5.93;2.88;;;8.20;58.40;;;;;;5135117;28;20039;-70
2022/03/20 09:51:00;;;;;;;5.57;2.90;;;8.40;58.10;;;;;;5117043;28;20065;-70
2022/03/20 09:53:27;;;;;;;4.80;2.50;;;8.60;58.00;;;;;;5117317;28;20046;-69
2022/03/20 09:55:55;;;;;;;4.45;2.35;;;8.80;57.70;;;;;;5134880;28;20039;-69
2022/03/20 09:58:25;;;;;;;4.35;2.33;;;8.90;57.60;;;;;;5135332;28;20393;-69
2022/03/20 10:00:52;;;;;;;4.70;2.58;;;9.10;57.40;;;;;;5135182;28;20038;-70
2022/03/20 10:03:20;;;;;;;4.07;2.40;;;9.20;57.30;;;;;;5135184;28;20042;-69
2022/03/20 10:06:06;;;;;;;4.22;2.50;;;9.30;57.10;;;;;;5083194;28;20035;-69
2022/03/20 10:08:32;;;;;;;4.88;2.60;;;9.40;57.00;;;;;;5135024;28;20540;-69
2022/03/20 10:11:16;;;;;;;4.90;2.35;;;9.40;57.00;;;;;;5098356;28;20044;-69
2022/03/20 10:14:10;;;;;;;5.97;2.90;;;9.40;57.10;;;;;;5135286;28;20031;-69
2022/03/20 10:16:39;;;;;;;5.80;3.05;;;9.50;57.10;;;;;;5134420;27;20043;-69
2022/03/20 10:19:25;;;;;;;5.68;2.97;;;9.60;57.00;;;;;;5134977;28;20045;-69
2022/03/20 10:21:55;;;;;;;4.65;2.70;;;9.70;56.90;;;;;;5099487;28;20505;-70
2022/03/20 10:24:23;;;;;;;3.88;2.17;;;9.80;56.90;;;;;;5134660;28;20042;-70
2022/03/20 10:27:05;;;;;;;4.43;2.38;;;9.90;56.80;;;;;;5135335;28;20046;-70
2022/03/20 10:29:34;;;;;;;5.25;2.80;;;10.00;56.60;;;;;;5134610;28;20035;-70
2022/03/20 10:32:05;;;;;;;4.35;2.58;;;10.00;56.50;;;;;;5134568;28;20110;-70
2022/03/20 10:34:48;;;;;;;4.45;2.40;;;10.00;56.50;;;;;;5134611;28;20088;-70
2022/03/20 10:37:13;;;;;;;4.40;2.58;;;10.10;56.60;;;;;;5134415;28;20043;-71
2022/03/20 10:39:42;;;;;;;5.68;2.42;;;10.00;56.60;;;;;;5134468;28;20039;-70
2022/03/20 10:42:12;;;;;;;4.75;2.55;;;10.10;56.70;;;;;;5135135;28;20107;-70
2022/03/20 10:44:38;;;;;;;5.55;2.78;;;10.20;56.60;;;;;;5098971;28;20054;-70
2022/03/20 10:47:12;;;;;;;4.45;2.15;;;10.10;56.60;;;;;;5114891;28;20151;-70
2022/03/20 10:49:41;;;;;;;4.75;2.42;;;10.20;56.60;;;;;;5134753;28;20059;-71
2022/03/20 10:52:13;;;;;;;4.80;2.40;;;10.10;56.70;;;;;;5134763;28;20051;-70
2022/03/20 10:54:46;;;;;;;3.58;2.05;;;10.10;56.80;;;;;;5134539;28;20058;-70
2022/03/20 10:57:13;;;;;;;4.30;2.40;;;10.00;56.80;;;;;;5117108;28;20039;-70
2022/03/20 10:59:40;;;;;;;4.97;2.50;;;9.90;57.00;;;;;;5134632;28;20124;-70
2022/03/20 11:02:19;;;;;;;4.00;2.17;;;9.70;57.20;;;;;;5116181;28;20080;-70
2022/03/20 11:04:45;;;;;;;4.45;2.50;;;9.60;57.40;;;;;;5134331;28;20527;-70
2022/03/20 11:07:16;;;;;;;4.95;2.50;;;9.60;57.60;;;;;;5134466;28;20053;-70
2022/03/20 11:09:46;;;;;;;5.13;2.55;;;9.50;57.70;;;;;;5134055;28;20054;-70
2022/03/20 11:12:18;;;;;;;4.67;2.57;;;9.50;57.80;;;;;;5134629;28;20054;-70
2022/03/20 11:14:45;;;;;;;5.03;2.80;;;9.60;57.90;;;;;;5134499;28;20303;-70
2022/03/20 11:17:17;;;;;;;4.90;2.85;;;9.50;57.80;;;;;;5134177;28;20652;-70
2022/03/20 11:19:47;;;;;;;;;;;9.50;57.70;;;;;;5116114;28;20397;-70
2022/03/20 11:22:15;;;;;;;5.35;2.47;;;9.60;57.80;;;;;;5134259;28;19971;-70
2022/03/20 11:24:43;;;;;;;4.45;2.30;;;9.60;57.70;;;;;;5134011;28;20039;-70
2022/03/20 11:27:12;;;;;;;4.47;2.60;;;9.70;57.50;;;;;;5134067;27;20071;-70
2022/03/20 11:29:55;;;;;;;5.60;3.13;;;9.80;57.30;;;;;;5133999;28;20061;-70
2022/03/20 11:32:22;;;;;;;4.47;2.20;;;10.00;57.20;;;;;;5097062;28;20046;-71
2022/03/20 11:34:48;;;;;;;4.32;2.58;;;9.90;57.00;;;;;;5134054;28;20039;-70
2022/03/20 11:37:16;;;;;;;5.55;2.88;;;10.00;56.90;;;;;;5133690;28;20038;-70
2022/03/20 11:40:20;;;;;;;4.90;2.60;;;10.00;56.90;;;;;;5133301;28;20035;-71
2022/03/20 11:42:48;;;;;;;4.10;2.40;;;10.00;57.20;;;;;;5133550;28;20035;-70
2022/03/20 11:45:17;;;;;;;4.28;2.28;;;10.00;57.10;;;;;;5097971;28;20402;-70
2022/03/20 11:47:45;;;;;;;4.18;2.45;;;9.90;57.10;;;;;;5133613;28;20070;-70
2022/03/20 11:50:23;;;;;;;3.65;2.00;;;9.90;57.10;;;;;;5114562;28;20066;-70
2022/03/20 11:52:55;;;;;;;4.50;2.47;;;10.00;57.30;;;;;;5114952;28;20039;-70
2022/03/20 11:55:32;;;;;;;4.55;2.50;;;10.00;57.20;;;;;;5133406;28;20042;-71
2022/03/20 11:58:01;;;;;;;3.80;2.30;;;10.10;57.20;;;;;;5133238;28;20035;-70
2022/03/20 12:00:30;;;;;;;5.03;2.92;;;10.10;57.20;;;;;;5133580;28;20031;-71
2022/03/20 12:03:25;;;;;;;5.13;2.58;;;10.10;57.20;;;;;;5133681;28;20442;-71
2022/03/20 12:06:22;;;;;;;4.32;2.40;;;10.10;57.30;;;;;;5115183;28;20085;-70
2022/03/20 12:09:03;;;;;;;4.97;2.33;;;10.10;57.40;;;;;;5133383;28;20062;-71
2022/03/20 12:11:53;;;;;;;4.55;2.50;;;10.10;57.40;;;;;;5133231;28;20041;-70
2022/03/20 12:14:46;;;;;;;3.60;2.05;;;10.20;57.40;;;;;;5133112;28;20053;-70
2022/03/20 12:17:12;;;;;;;5.07;2.55;;;10.20;57.30;;;;;;5132936;28;20074;-70
2022/03/20 12:19:42;;;;;;;4.15;2.08;;;10.30;57.30;;;;;;5133290;28;20035;-70
2022/03/20 12:22:15;;;;;;;3.85;2.22;;;10.30;57.30;;;;;;5133018;28;20443;-70
2022/03/20 12:24:47;;;;;;;3.75;2.10;;;10.30;57.30;;;;;;5115799;28;20553;-70
2022/03/20 12:27:44;;;;;;;4.40;2.80;;;10.30;57.30;;;;;;5114507;28;20047;-70
2022/03/20 12:30:30;;;;;;;4.07;2.22;;;10.40;57.20;;;;;;5133325;28;20039;-70
2022/03/20 12:32:57;;;;;;;3.85;2.00;;;10.30;57.20;;;;;;5117817;28;20444;-70
2022/03/20 12:35:25;;;;;;;3.22;2.00;;;10.40;57.30;;;;;;5132918;28;20512;-70
2022/03/20 12:37:52;;;;;;;3.83;2.17;;;10.30;57.30;;;;;;5132996;28;20035;-70
2022/03/20 12:40:29;;;;;;;4.57;2.40;;;10.30;57.30;;;;;;5117255;28;20035;-72
2022/03/20 12:43:08;;;;;;;4.00;2.40;;;10.40;57.30;;;;;;5118292;28;20068;-71
2022/03/20 12:45:35;;;;;;;4.40;2.20;;;10.50;57.20;;;;;;5136510;28;20088;-71
2022/03/20 12:48:05;;;;;;;4.40;2.50;;;10.60;57.10;;;;;;5136134;28;20063;-71
2022/03/20 12:50:35;;;;;;;4.32;2.30;;;10.60;57.00;;;;;;5136095;28;20095;-72
2022/03/20 12:53:16;;;;;;;4.63;2.67;;;10.70;56.80;;;;;;5117902;28;20394;-72
2022/03/20 12:55:47;;;;;;;4.90;2.67;;;10.70;56.80;;;;;;5117788;28;20043;-72
2022/03/20 12:58:15;;;;;;;4.97;2.90;;;10.60;56.80;;;;;;5136168;28;20075;-71
2022/03/20 13:00:42;;;;;;;4.65;2.42;;;10.70;57.00;;;;;;5115501;28;20041;-71
2022/03/20 13:03:12;;;;;;;3.92;2.33;;;10.60;57.00;;;;;;5118189;28;20179;-72
2022/03/20 13:05:50;;;;;;;5.00;2.65;;;10.60;57.00;;;;;;5135956;28;20481;-71
2022/03/20 13:08:21;;;;;;;4.05;2.28;;;10.60;57.10;;;;;;5136506;28;20050;-71
2022/03/20 13:10:47;;;;;;;4.60;2.40;;;10.50;57.10;;;;;;5135682;28;20494;-72
2022/03/20 13:13:16;;;;;;;4.90;2.70;;;10.50;57.80;;;;;;5115776;28;20035;-70
2022/03/20 13:15:42;;;;;;;4.80;2.60;;;10.50;57.20;;;;;;5136248;28;20035;-71
2022/03/20 13:18:09;;;;;;;4.20;2.45;;;10.40;57.30;;;;;;5135963;28;20035;-70
2022/03/20 13:20:40;;;;;;;5.00;2.67;;;10.40;57.40;;;;;;5117012;28;20039;-70
2022/03/20 13:23:08;;;;;;;5.03;2.87;;;10.30;57.50;;;;;;5135738;28;20034;-70
2022/03/20 13:25:39;;;;;;;4.30;2.70;;;10.30;57.60;;;;;;5117280;28;20045;-70
2022/03/20 13:28:06;;;;;;;4.28;2.65;;;10.20;57.60;;;;;;5135629;28;20043;-71
2022/03/20 13:30:35;;;;;;;5.32;2.70;;;10.10;57.70;;;;;;5135684;28;20103;-71
2022/03/20 13:33:02;;;;;;;4.88;2.78;;;10.10;57.80;;;;;;5117069;28;20068;-72
2022/03/20 13:35:29;;;;;;;5.97;2.33;;;10.10;57.90;;;;;;5135336;28;20534;-71
2022/03/20 13:37:59;;;;;;;4.53;2.45;;;10.00;58.00;;;;;;5100425;28;20035;-71
2022/03/20 13:40:27;;;;;;;5.73;3.10;;;9.90;58.10;;;;;;5135947;28;20091;-71